Time;durP1;ratioP1;P1;durP2;ratioP2;P2;SDS_P1;SDS_P2;PMS_P1;PMS_P2;Temp;Humidity;BMP_temperature;BMP_pressure;BME280_temperature;BME280_humidity;BME280_pressure;Samples;Min_cycle;Max_cycle;Signal;HPM_P1;HPM_P2
2022/04/24 00:01:35;;;;;;;8.10;4.53;;;;;;;5.09;81.54;95077.77;1795460;80;20998;-68
2022/04/24 00:04:02;;;;;;;7.77;5.00;;;;;;;5.05;81.37;95079.09;1795248;80;21895;-67
2022/04/24 00:06:31;;;;;;;6.93;4.53;;;;;;;5.08;81.81;95081.24;1795554;80;20971;-67
2022/04/24 00:08:57;;;;;;;7.70;4.50;;;;;;;5.04;81.88;95080.84;1795465;80;21473;-67
2022/04/24 00:11:23;;;;;;;6.53;4.13;;;;;;;4.95;81.87;95084.36;1795336;80;21066;-67
2022/04/24 00:13:50;;;;;;;6.63;4.23;;;;;;;4.96;81.87;95083.92;1795803;80;20986;-67
2022/04/24 00:16:16;;;;;;;6.97;4.57;;;;;;;4.90;82.17;95081.34;1795460;80;21006;-67
2022/04/24 00:18:43;;;;;;;6.50;4.47;;;;;;;4.80;82.15;95085.75;1795302;80;21042;-68
2022/04/24 00:21:10;;;;;;;6.70;4.73;;;;;;;4.80;82.06;95080.52;1795427;80;20939;-67
2022/04/24 00:23:36;;;;;;;8.57;5.60;;;;;;;4.81;81.98;95085.30;1795562;80;21011;-68
2022/04/24 00:26:03;;;;;;;7.47;4.50;;;;;;;4.78;81.74;95083.13;1795417;80;21014;-68
2022/04/24 00:28:29;;;;;;;7.73;4.50;;;;;;;4.76;81.56;95087.94;1795419;80;21058;-68
2022/04/24 00:30:56;;;;;;;5.60;3.80;;;;;;;4.64;80.89;95087.56;1795533;80;21465;-68
2022/04/24 00:33:23;;;;;;;6.17;4.70;;;;;;;4.58;80.87;95082.79;1795268;80;21516;-68
2022/04/24 00:35:49;;;;;;;7.90;4.80;;;;;;;4.48;80.96;95084.56;1795580;80;20959;-68
2022/04/24 00:38:16;;;;;;;8.40;5.50;;;;;;;4.49;82.21;95089.80;1795251;80;21023;-67
2022/04/24 00:40:47;;;;;;;11.80;7.63;;;;;;;4.47;82.87;95088.06;1795455;80;20983;-68
2022/04/24 00:43:15;;;;;;;13.67;7.43;;;;;;;4.49;83.14;95079.34;1795525;80;21460;-67
2022/04/24 00:45:48;;;;;;;16.87;9.38;;;;;;;4.57;83.39;95074.09;1794596;80;21035;-67
2022/04/24 00:48:14;;;;;;;10.53;6.93;;;;;;;4.64;83.77;95083.64;1795658;80;21033;-67
2022/04/24 00:50:43;;;;;;;15.33;8.83;;;;;;;4.75;84.05;95076.61;1795379;80;21033;-67
2022/04/24 00:53:10;;;;;;;19.33;11.67;;;;;;;4.84;84.23;95075.72;1795403;80;20967;-67
2022/04/24 00:55:37;;;;;;;16.70;10.07;;;;;;;4.94;84.37;95070.88;1795403;80;20979;-67
2022/04/24 00:58:04;;;;;;;17.20;11.13;;;;;;;5.12;84.33;95069.90;1795581;80;21038;-67
2022/04/24 01:00:31;;;;;;;20.70;11.57;;;;;;;5.26;84.22;95072.41;1795415;80;20975;-67
2022/04/24 01:02:59;;;;;;;16.03;9.73;;;;;;;5.35;83.80;95063.66;1795452;80;21567;-67
2022/04/24 01:05:25;;;;;;;17.00;10.00;;;;;;;5.46;83.51;95067.05;1795408;80;21003;-67
2022/04/24 01:07:52;;;;;;;18.80;10.97;;;;;;;5.60;83.67;95068.27;1795302;80;20990;-68
2022/04/24 01:10:18;;;;;;;22.43;13.97;;;;;;;5.64;82.99;95068.23;1795494;80;21019;-68
2022/04/24 01:12:45;;;;;;;23.70;14.73;;;;;;;5.77;82.90;95062.87;1795159;80;21082;-68
2022/04/24 01:15:12;;;;;;;16.47;10.60;;;;;;;5.92;82.93;95060.56;1795041;80;21007;-67
2022/04/24 01:17:40;;;;;;;14.13;8.67;;;;;;;5.98;82.54;95057.48;1795161;80;21022;-67
2022/04/24 01:20:08;;;;;;;12.37;8.57;;;;;;;5.99;81.65;95065.76;1794947;80;21121;-67
2022/04/24 01:22:35;;;;;;;19.37;10.70;;;;;;;5.99;81.90;95051.80;1795364;80;21022;-68
2022/04/24 01:25:01;;;;;;;15.57;9.77;;;;;;;6.09;81.86;95050.83;1795494;80;21003;-68
2022/04/24 01:27:28;;;;;;;15.63;9.40;;;;;;;6.12;82.15;95053.86;1795237;80;21022;-68
2022/04/24 01:29:54;;;;;;;17.97;11.10;;;;;;;6.15;81.93;95049.47;1794931;80;21066;-67
2022/04/24 01:32:21;;;;;;;16.53;10.57;;;;;;;6.17;81.68;95043.75;1795564;80;20999;-68
2022/04/24 01:34:47;;;;;;;18.20;11.53;;;;;;;6.08;81.82;95049.11;1794990;80;21054;-68
2022/04/24 01:37:14;;;;;;;18.20;11.57;;;;;;;6.04;82.11;95056.11;1795386;80;20975;-67
2022/04/24 01:39:40;;;;;;;17.93;10.27;;;;;;;6.04;81.96;95050.87;1795673;80;20987;-67
2022/04/24 01:42:07;;;;;;;12.93;9.47;;;;;;;6.04;82.12;95052.17;1795421;80;21026;-67
2022/04/24 01:44:33;;;;;;;12.67;8.37;;;;;;;6.01;81.96;95044.80;1795330;80;21049;-67
2022/04/24 01:47:00;;;;;;;12.70;8.27;;;;;;;5.92;82.11;95048.36;1795464;80;20990;-67
2022/04/24 01:49:27;;;;;;;16.50;9.67;;;;;;;5.84;82.04;95046.23;1794614;80;21018;-68
2022/04/24 01:51:54;;;;;;;13.57;9.80;;;;;;;5.74;83.01;95044.58;1795104;80;21018;-68
2022/04/24 01:54:21;;;;;;;17.13;9.83;;;;;;;5.71;83.24;95040.23;1795548;80;21034;-68
2022/04/24 01:56:47;;;;;;;15.20;9.70;;;;;;;5.69;83.25;95047.23;1795407;80;21437;-68
2022/04/24 01:59:13;;;;;;;16.60;9.93;;;;;;;5.67;83.56;95035.94;1795722;80;20999;-68
2022/04/24 02:01:40;;;;;;;15.80;9.80;;;;;;;5.66;83.84;95030.70;1795390;80;21011;-68
2022/04/24 02:04:06;;;;;;;15.13;9.40;;;;;;;5.63;83.93;95033.77;1795222;80;21515;-68
2022/04/24 02:06:33;;;;;;;15.33;8.70;;;;;;;5.69;83.62;95034.59;1790069;80;21046;-68
2022/04/24 02:09:00;;;;;;;17.63;10.70;;;;;;;5.65;84.04;95033.77;1795660;80;20990;-68
2022/04/24 02:11:26;;;;;;;21.57;11.10;;;;;;;5.63;84.19;95030.28;1795343;80;20966;-68
2022/04/24 02:13:52;;;;;;;17.93;10.47;;;;;;;5.67;83.83;95028.50;1795473;80;21472;-68
2022/04/24 02:16:19;;;;;;;17.30;10.07;;;;;;;5.73;84.01;95025.84;1795563;80;20987;-67
2022/04/24 02:18:45;;;;;;;16.27;10.47;;;;;;;5.72;84.32;95020.16;1795167;80;21514;-67
2022/04/24 02:21:13;;;;;;;20.40;11.37;;;;;;;5.75;84.19;95027.56;1795450;80;21007;-67
2022/04/24 02:23:40;;;;;;;16.57;9.90;;;;;;;5.76;83.72;95034.52;1795455;80;21484;-67
2022/04/24 02:26:06;;;;;;;14.67;9.37;;;;;;;5.75;83.89;95044.58;1795366;80;21013;-67
2022/04/24 02:28:33;;;;;;;13.50;8.53;;;;;;;5.71;83.88;95047.23;1795432;80;20967;-67
2022/04/24 02:31:00;;;;;;;12.50;8.37;;;;;;;5.76;83.83;95046.75;1795579;80;21026;-67
2022/04/24 02:33:26;;;;;;;12.90;7.97;;;;;;;5.71;83.72;95040.23;1795046;80;21583;-67
2022/04/24 02:35:53;;;;;;;15.57;9.30;;;;;;;5.71;83.76;95045.47;1795260;80;21457;-68
2022/04/24 02:38:19;;;;;;;14.67;9.83;;;;;;;5.74;83.81;95049.37;1795508;80;20994;-68
2022/04/24 02:40:46;;;;;;;13.43;9.07;;;;;;;5.86;84.08;95041.86;1795345;80;21503;-67
2022/04/24 02:43:12;;;;;;;12.97;9.03;;;;;;;5.90;83.58;95048.81;1795157;80;21017;-68
2022/04/24 02:45:40;;;;;;;13.20;8.90;;;;;;;5.92;83.34;95045.74;1794923;80;21121;-68
2022/04/24 02:48:07;;;;;;;12.23;8.73;;;;;;;5.92;82.83;95048.78;1795121;80;21099;-68
2022/04/24 02:50:34;;;;;;;15.07;9.17;;;;;;;5.83;82.43;95053.67;1795204;80;21014;-68
2022/04/24 02:53:00;;;;;;;15.47;9.70;;;;;;;5.74;82.85;95044.58;1795390;80;20999;-68
2022/04/24 02:55:27;;;;;;;15.03;9.43;;;;;;;5.63;83.14;95049.47;1795443;80;21061;-68
2022/04/24 02:57:54;;;;;;;16.47;10.20;;;;;;;5.66;83.34;95052.95;1795061;80;21077;-67
2022/04/24 03:00:24;;;;;;;17.70;11.80;;;;;;;5.58;83.06;95054.32;1795191;80;20967;-68
2022/04/24 03:02:52;;;;;;;23.77;14.67;;;;;;;5.56;82.72;95049.53;1795468;80;21440;-68
2022/04/24 03:05:24;;;;;;;28.73;19.63;;;;;;;5.38;81.86;95054.47;1795091;80;21070;-67
2022/04/24 03:07:51;;;;;;;19.13;12.17;;;;;;;5.28;82.38;95052.35;1795284;80;21021;-68
2022/04/24 03:10:18;;;;;;;18.37;9.97;;;;;;;5.16;82.05;95053.29;1795401;80;20991;-67
2022/04/24 03:12:45;;;;;;;12.90;8.13;;;;;;;5.11;82.55;95051.14;1795669;80;20975;-67
2022/04/24 03:15:14;;;;;;;13.17;8.17;;;;;;;5.10;82.39;95048.11;1794902;80;20998;-68
2022/04/24 03:17:41;;;;;;;12.70;7.43;;;;;;;5.08;82.62;95043.77;1795518;80;21026;-67
2022/04/24 03:20:10;;;;;;;13.67;8.03;;;;;;;4.97;82.29;95049.94;1795398;80;20967;-67
2022/04/24 03:22:37;;;;;;;15.87;7.40;;;;;;;4.92;82.64;95053.46;1795571;80;21033;-68
2022/04/24 03:25:07;;;;;;;12.43;7.50;;;;;;;4.84;83.31;95053.92;1795225;80;21019;-68
2022/04/24 03:27:34;;;;;;;13.73;7.53;;;;;;;4.81;83.54;95062.64;1795547;80;21007;-68
2022/04/24 03:30:01;;;;;;;11.07;7.37;;;;;;;4.85;83.94;95063.06;1795488;80;20967;-68
2022/04/24 03:32:34;;;;;;;13.43;7.87;;;;;;;4.88;84.21;95064.80;1795438;80;21074;-68
2022/04/24 03:35:04;;;;;;;17.23;9.73;;;;;;;4.88;84.52;95073.95;1795210;80;21066;-68
2022/04/24 03:37:30;;;;;;;16.20;9.47;;;;;;;4.86;84.63;95079.17;1795505;80;21500;-68
2022/04/24 03:39:57;;;;;;;13.67;8.20;;;;;;;4.86;85.23;95081.78;1795234;80;21033;-68
2022/04/24 03:42:26;;;;;;;14.27;8.80;;;;;;;4.87;85.27;95082.23;1795189;80;21022;-68
2022/04/24 03:44:57;;;;;;;12.77;7.60;;;;;;;4.96;84.83;95084.81;1792456;80;20975;-68
2022/04/24 03:47:24;;;;;;;14.33;8.60;;;;;;;5.03;84.65;95082.16;1787201;80;21050;-68
2022/04/24 03:49:51;;;;;;;17.50;10.07;;;;;;;5.05;85.01;95081.27;1786883;80;21492;-67
2022/04/24 03:52:17;;;;;;;21.60;10.93;;;;;;;5.12;85.09;95086.03;1787222;80;20971;-67
2022/04/24 03:54:44;;;;;;;15.47;10.33;;;;;;;5.18;85.21;95084.23;1787087;80;21006;-67
2022/04/24 03:57:12;;;;;;;13.97;9.20;;;;;;;5.27;85.06;95084.63;1786953;80;21485;-67
2022/04/24 03:59:39;;;;;;;13.73;8.93;;;;;;;5.31;85.41;95088.08;1787256;80;21078;-67
2022/04/24 04:02:06;;;;;;;14.90;9.00;;;;;;;5.42;85.15;95079.73;1787164;80;21027;-67
2022/04/24 04:04:33;;;;;;;14.97;9.07;;;;;;;5.49;84.70;95072.70;1786874;80;20975;-67
2022/04/24 04:07:00;;;;;;;13.73;9.10;;;;;;;5.50;84.66;95074.45;1787125;80;21002;-68
2022/04/24 04:09:27;;;;;;;15.50;9.17;;;;;;;5.53;84.92;95072.67;1786961;80;21011;-68
2022/04/24 04:11:53;;;;;;;13.23;8.23;;;;;;;5.64;85.09;95065.62;1787196;80;20991;-68
2022/04/24 04:14:21;;;;;;;17.03;9.33;;;;;;;5.72;84.66;95068.17;1787340;80;20979;-68
2022/04/24 04:16:49;;;;;;;25.10;15.10;;;;;;;5.74;84.60;95055.91;1786779;80;21058;-68
2022/04/24 04:19:17;;;;;;;16.00;9.20;;;;;;;5.79;84.77;95038.41;1787103;80;20955;-68
2022/04/24 04:21:43;;;;;;;24.77;14.37;;;;;;;5.81;84.39;95030.56;1787121;80;21015;-68
2022/04/24 04:24:11;;;;;;;39.33;21.47;;;;;;;5.88;84.54;95038.79;1787115;80;21477;-68
2022/04/24 04:26:38;;;;;;;31.87;16.43;;;;;;;5.93;84.64;95040.92;1786843;80;21023;-68
2022/04/24 04:29:04;;;;;;;19.43;10.83;;;;;;;5.98;84.51;95035.23;1787496;80;21003;-68
2022/04/24 04:31:31;;;;;;;11.30;7.00;;;;;;;6.11;84.60;95040.34;1786953;80;21449;-67
2022/04/24 04:33:57;;;;;;;9.53;5.50;;;;;;;6.19;84.23;95035.89;1787106;80;20959;-67
2022/04/24 04:36:24;;;;;;;9.07;5.80;;;;;;;6.31;84.32;95050.62;1787136;80;20999;-67
2022/04/24 04:38:51;;;;;;;9.40;6.13;;;;;;;6.40;83.26;95049.19;1786903;80;21006;-67
2022/04/24 04:41:17;;;;;;;10.57;5.93;;;;;;;6.49;83.83;95053.02;1786893;80;21047;-67
2022/04/24 04:43:44;;;;;;;9.90;7.30;;;;;;;6.57;83.14;95056.41;1787162;80;20995;-67
2022/04/24 04:46:11;;;;;;;10.57;6.77;;;;;;;6.64;82.82;95058.53;1786623;80;21088;-68
2022/04/24 04:48:38;;;;;;;9.83;6.30;;;;;;;6.66;82.25;95062.02;1786786;80;21527;-68
2022/04/24 04:51:04;;;;;;;10.00;6.80;;;;;;;6.69;82.13;95061.97;1787330;80;20983;-68
2022/04/24 04:53:32;;;;;;;11.27;7.07;;;;;;;6.71;82.04;95062.37;1786718;80;21007;-68
2022/04/24 04:55:59;;;;;;;10.53;7.07;;;;;;;6.75;81.66;95064.95;1787078;80;21042;-68
2022/04/24 04:58:25;;;;;;;11.33;6.70;;;;;;;6.75;82.29;95057.08;1786965;80;20999;-68
2022/04/24 05:00:52;;;;;;;8.33;6.20;;;;;;;6.83;82.21;95057.84;1787171;80;21529;-68
2022/04/24 05:03:18;;;;;;;8.37;6.73;;;;;;;6.89;82.00;95066.97;1787311;80;21050;-68
2022/04/24 05:05:45;;;;;;;12.53;8.70;;;;;;;6.94;81.71;95066.02;1786897;80;20999;-68
2022/04/24 05:08:11;;;;;;;13.90;8.60;;;;;;;7.02;81.82;95059.35;1786898;80;21074;-68
2022/04/24 05:10:38;;;;;;;12.03;7.70;;;;;;;7.06;81.58;95057.13;1787387;80;20943;-68
2022/04/24 05:13:05;;;;;;;11.60;8.50;;;;;;;7.07;81.62;95065.85;1786949;80;21485;-68
2022/04/24 05:15:32;;;;;;;17.70;12.53;;;;;;;7.12;81.80;95065.34;1787171;80;21047;-67
2022/04/24 05:17:59;;;;;;;18.63;11.00;;;;;;;7.12;81.72;95051.78;1787148;80;21481;-67
2022/04/24 05:20:25;;;;;;;14.60;10.10;;;;;;;7.21;81.94;95052.56;1787027;80;20987;-67
2022/04/24 05:23:02;;;;;;;20.17;12.60;;;;;;;7.25;81.89;95051.61;1787123;80;21524;-67
2022/04/24 05:25:29;;;;;;;16.17;10.00;;;;;;;7.28;81.82;95058.11;1787308;80;20983;-67
2022/04/24 05:27:56;;;;;;;12.70;8.80;;;;;;;7.35;82.05;95054.52;1787024;80;21489;-67
2022/04/24 05:30:24;;;;;;;17.87;10.83;;;;;;;7.50;82.15;95056.05;1787155;80;21496;-67
2022/04/24 05:32:51;;;;;;;21.10;13.53;;;;;;;7.68;82.07;95058.83;1787143;80;21481;-67
2022/04/24 05:35:18;;;;;;;16.87;10.80;;;;;;;7.86;82.03;95047.16;1786841;80;20995;-67
2022/04/24 05:37:48;;;;;;;9.90;7.27;;;;;;;8.04;82.02;95048.17;1787223;80;21465;-68
2022/04/24 05:40:16;;;;;;;11.83;8.23;;;;;;;8.18;81.48;95046.14;1787085;80;20983;-68
2022/04/24 05:42:49;;;;;;;17.70;11.57;;;;;;;8.30;80.24;95052.09;1787045;80;20983;-68
2022/04/24 05:45:18;;;;;;;15.93;10.72;;;;;;;8.45;80.15;95040.00;1789509;80;21015;-68
2022/04/24 05:47:46;;;;;;;9.87;8.13;;;;;;;8.62;80.08;95037.91;1795019;80;21526;-68
2022/04/24 05:50:13;;;;;;;16.83;7.77;;;;;;;8.82;79.42;95041.88;1795273;80;21468;-68
2022/04/24 05:52:40;;;;;;;7.27;4.90;;;;;;;9.01;78.56;95027.90;1795343;80;21074;-68
2022/04/24 05:55:08;;;;;;;15.07;8.67;;;;;;;9.24;77.59;95033.52;1795263;80;21026;-68
2022/04/24 05:57:36;;;;;;;10.53;7.40;;;;;;;9.40;76.62;95031.84;1795423;80;21512;-68
2022/04/24 06:00:06;;;;;;;11.43;8.10;;;;;;;9.50;76.60;95038.20;1795513;80;20978;-68
2022/04/24 06:02:35;;;;;;;13.03;8.47;;;;;;;9.58;77.05;95038.48;1794371;80;21017;-68
2022/04/24 06:05:02;;;;;;;11.40;7.57;;;;;;;9.72;77.57;95035.04;1795324;80;21037;-67
2022/04/24 06:07:29;;;;;;;11.53;7.53;;;;;;;9.82;77.26;95031.28;1795464;80;21003;-68
2022/04/24 06:09:56;;;;;;;12.10;7.80;;;;;;;9.89;76.01;95038.13;1795687;80;20977;-68
2022/04/24 06:12:22;;;;;;;11.67;6.80;;;;;;;10.01;76.94;95025.11;1795079;80;21041;-68
2022/04/24 06:14:49;;;;;;;15.00;11.63;;;;;;;10.10;76.92;95028.80;1795407;80;21508;-67
2022/04/24 06:17:15;;;;;;;13.00;9.45;;;;;;;10.19;76.52;95026.40;1795398;80;20986;-67
2022/04/24 06:19:42;;;;;;;11.50;7.75;;;;;;;10.27;76.84;95032.33;1795546;80;21433;-68
2022/04/24 06:22:08;;;;;;;13.22;8.23;;;;;;;10.38;76.44;95029.44;1794973;80;21069;-67
2022/04/24 06:24:35;;;;;;;13.23;9.30;;;;;;;10.42;75.35;95023.18;1795049;80;20998;-68
2022/04/24 06:27:01;;;;;;;9.83;7.25;;;;;;;10.47;76.12;95019.10;1795658;80;20991;-68
2022/04/24 06:29:27;;;;;;;12.90;9.08;;;;;;;10.51;76.04;95024.26;1795496;80;21002;-68
2022/04/24 06:31:54;;;;;;;9.50;6.62;;;;;;;10.58;76.16;95015.70;1795336;80;20990;-68
2022/04/24 06:34:21;;;;;;;35.10;21.35;;;;;;;10.63;74.90;95025.67;1795381;80;21465;-68
2022/04/24 06:36:47;;;;;;;62.83;46.83;;;;;;;10.65;74.92;95031.77;1794855;80;21027;-68
2022/04/24 06:39:14;;;;;;;57.15;50.95;;;;;;;10.68;74.81;95033.00;1795637;80;20981;-68
2022/04/24 06:41:41;;;;;;;13.50;11.73;;;;;;;10.69;74.25;95032.11;1795428;80;21111;-68
2022/04/24 06:44:08;;;;;;;14.30;12.80;;;;;;;10.82;74.16;95036.59;1795324;80;21034;-68
2022/04/24 06:46:34;;;;;;;13.78;7.78;;;;;;;10.84;73.37;95036.09;1795546;80;21054;-68
2022/04/24 06:49:01;;;;;;;8.60;6.47;;;;;;;10.95;73.44;95034.46;1795548;80;20993;-68
2022/04/24 06:51:27;;;;;;;8.93;6.20;;;;;;;11.01;73.53;95035.59;1794987;80;21046;-67
2022/04/24 06:53:53;;;;;;;8.53;6.50;;;;;;;11.03;73.17;95036.41;1795543;80;21050;-67
2022/04/24 06:56:20;;;;;;;8.85;6.12;;;;;;;11.15;73.96;95040.02;1795668;80;21003;-67
2022/04/24 06:58:47;;;;;;;9.80;6.80;;;;;;;11.32;74.24;95034.70;1795386;80;21453;-67
2022/04/24 07:01:14;;;;;;;9.53;7.15;;;;;;;11.46;73.75;95037.77;1795327;80;20987;-67
2022/04/24 07:03:40;;;;;;;9.65;6.60;;;;;;;11.63;73.19;95024.89;1795205;80;21058;-67
2022/04/24 07:06:07;;;;;;;8.35;6.65;;;;;;;11.75;73.54;95026.28;1795540;80;21029;-68
2022/04/24 07:08:34;;;;;;;9.25;6.28;;;;;;;11.90;72.70;95019.67;1795608;80;21453;-68
2022/04/24 07:11:01;;;;;;;9.80;7.15;;;;;;;12.03;72.33;95014.84;1795678;80;20987;-68
2022/04/24 07:13:28;;;;;;;11.12;6.58;;;;;;;12.06;71.77;95014.27;1795425;80;21453;-68
2022/04/24 07:15:54;;;;;;;10.00;6.45;;;;;;;12.11;71.95;95017.62;1795693;80;20971;-68
2022/04/24 07:18:22;;;;;;;9.18;6.75;;;;;;;12.18;71.50;95017.43;1795553;80;21006;-68
2022/04/24 07:20:49;;;;;;;8.83;6.58;;;;;;;12.29;71.68;95025.38;1795369;80;20971;-68
2022/04/24 07:23:16;;;;;;;8.28;6.10;;;;;;;12.38;70.43;95028.65;1795567;80;21512;-68
2022/04/24 07:25:44;;;;;;;9.37;6.40;;;;;;;12.47;70.83;95027.88;1795367;80;21098;-67
2022/04/24 07:28:12;;;;;;;8.05;5.75;;;;;;;12.49;69.49;95030.45;1795439;80;21441;-69
2022/04/24 07:30:39;;;;;;;9.55;6.50;;;;;;;12.47;70.52;95027.88;1795561;80;20967;-68
2022/04/24 07:33:06;;;;;;;8.75;6.20;;;;;;;12.55;70.68;95029.78;1795390;80;21704;-68
2022/04/24 07:35:36;;;;;;;9.05;5.90;;;;;;;12.61;69.52;95036.64;1795523;80;20951;-68
2022/04/24 07:38:03;;;;;;;10.78;6.17;;;;;;;12.73;70.22;95037.99;1795375;80;21005;-68
2022/04/24 07:40:33;;;;;;;8.85;6.00;;;;;;;12.90;70.30;95037.36;1795599;80;20991;-67
2022/04/24 07:43:02;;;;;;;7.15;5.58;;;;;;;13.07;69.41;95029.66;1795440;80;21019;-68
2022/04/24 07:45:47;;;;;;;8.40;5.80;;;;;;;13.15;68.83;95018.34;1794172;80;21118;-68
2022/04/24 07:48:15;;;;;;;8.90;5.92;;;;;;;13.21;68.02;95021.21;1787000;80;21007;-67
2022/04/24 07:50:45;;;;;;;7.05;5.55;;;;;;;13.44;68.61;95026.13;1787113;80;20975;-68
2022/04/24 07:53:14;;;;;;;6.67;5.35;;;;;;;13.61;68.07;95026.33;1787078;80;21007;-68
2022/04/24 07:55:43;;;;;;;7.40;5.00;;;;;;;13.70;66.90;95029.06;1787388;80;21018;-68
2022/04/24 07:58:10;;;;;;;7.37;5.22;;;;;;;13.80;65.57;95019.34;1787108;80;20987;-68
2022/04/24 08:00:39;;;;;;;6.72;4.55;;;;;;;13.94;66.11;95023.25;1787211;80;21496;-68
2022/04/24 08:03:11;;;;;;;5.03;4.42;;;;;;;14.01;64.98;95026.91;1787041;80;21015;-68
2022/04/24 08:05:47;;;;;;;8.20;4.90;;;;;;;14.16;64.96;95017.90;1787503;80;21062;-68
2022/04/24 08:08:20;;;;;;;5.78;4.60;;;;;;;14.34;66.16;95010.51;1786897;80;21026;-69
2022/04/24 08:10:50;;;;;;;8.70;5.20;;;;;;;14.53;64.98;95013.25;1787351;80;21034;-68
2022/04/24 08:13:19;;;;;;;5.10;4.47;;;;;;;14.64;63.53;95012.34;1787155;80;21034;-69
2022/04/24 08:15:48;;;;;;;7.12;4.67;;;;;;;14.68;62.33;95009.07;1786998;80;21023;-68
2022/04/24 08:18:15;;;;;;;5.92;4.50;;;;;;;14.73;61.49;95006.22;1787131;80;21030;-68
2022/04/24 08:20:43;;;;;;;5.40;4.10;;;;;;;14.80;62.20;94995.25;1787145;80;21011;-68
2022/04/24 08:23:12;;;;;;;7.42;5.08;;;;;;;14.96;63.31;94984.79;1786869;80;21146;-68
2022/04/24 08:25:39;;;;;;;5.20;4.35;;;;;;;15.17;62.45;94990.05;1787105;80;21050;-68
2022/04/24 08:28:12;;;;;;;6.20;4.30;;;;;;;15.36;62.77;94983.81;1787154;80;21500;-67
2022/04/24 08:30:43;;;;;;;6.62;3.90;;;;;;;15.59;62.98;94977.87;1786925;80;21461;-68
2022/04/24 08:33:11;;;;;;;4.70;4.20;;;;;;;15.79;62.23;94978.27;1787830;80;20955;-68
2022/04/24 08:35:38;;;;;;;4.53;4.00;;;;;;;15.93;59.38;94973.62;1787160;80;21517;-68
2022/04/24 08:38:05;;;;;;;5.83;4.30;;;;;;;16.23;60.14;94964.56;1786984;80;21449;-68
2022/04/24 08:40:32;;;;;;;8.93;8.03;;;;;;;16.23;60.14;94964.56;1787046;80;20983;-68
2022/04/24 08:43:00;;;;;;;4.45;3.98;;;;;;;16.25;58.46;94967.98;1787039;80;20975;-69
2022/04/24 08:45:29;;;;;;;4.72;3.83;;;;;;;16.38;59.71;94962.45;1787178;80;21047;-69
2022/04/24 08:47:58;;;;;;;5.05;3.60;;;;;;;16.53;59.32;94959.47;1795402;80;21010;-68
2022/04/24 08:50:29;;;;;;;4.37;3.65;;;;;;;16.64;58.06;94960.23;1795200;80;21011;-68
2022/04/24 08:52:57;;;;;;;4.87;3.92;;;;;;;16.72;57.76;94952.69;1795508;80;21078;-68
2022/04/24 08:55:30;;;;;;;3.95;3.55;;;;;;;16.72;56.31;94957.16;1795426;80;21034;-68
2022/04/24 08:57:57;;;;;;;4.25;3.85;;;;;;;16.78;56.90;94955.52;1795424;80;21006;-68
2022/04/24 09:00:24;;;;;;;3.90;3.37;;;;;;;16.86;56.55;94948.86;1795409;80;20975;-68
2022/04/24 09:02:51;;;;;;;3.85;2.90;;;;;;;16.99;55.67;94953.53;1795356;80;21014;-67
2022/04/24 09:05:18;;;;;;;3.22;2.50;;;;;;;17.05;56.04;94956.71;1795564;80;21049;-68
2022/04/24 09:07:45;;;;;;;3.20;2.70;;;;;;;17.09;55.01;94956.09;1795016;80;21014;-68
2022/04/24 09:10:12;;;;;;;6.12;3.25;;;;;;;17.26;55.66;94956.03;1795115;80;21090;-68
2022/04/24 09:12:40;;;;;;;2.55;2.15;;;;;;;17.46;55.03;94952.27;1795524;80;21002;-68
2022/04/24 09:15:09;;;;;;;2.67;2.40;;;;;;;17.64;55.07;94949.48;1795477;80;20971;-68
2022/04/24 09:17:36;;;;;;;3.45;2.40;;;;;;;17.76;53.74;94959.94;1795499;80;21014;-68
2022/04/24 09:20:19;;;;;;;6.53;5.92;;;;;;;17.85;53.00;94954.13;1795034;80;20987;-68
2022/04/24 09:22:47;;;;;;;5.08;4.12;;;;;;;17.96;53.87;94949.02;1795508;80;20967;-68
2022/04/24 09:25:13;;;;;;;4.55;3.10;;;;;;;18.09;53.31;94942.03;1795237;80;21041;-68
2022/04/24 09:27:40;;;;;;;3.72;3.02;;;;;;;18.25;54.19;94935.31;1795167;80;20987;-68
2022/04/24 09:30:14;;;;;;;3.10;2.70;;;;;;;18.30;52.71;94935.05;1795238;80;21327;-68
2022/04/24 09:32:55;;;;;;;4.00;3.20;;;;;;;18.39;53.16;94935.81;1795233;80;20967;-68
2022/04/24 09:35:32;;;;;;;3.45;3.12;;;;;;;18.46;51.99;94933.64;1795422;80;20990;-68
2022/04/24 09:38:14;;;;;;;9.95;3.22;;;;;;;18.56;53.41;94925.45;1795010;80;21010;-68
2022/04/24 09:40:44;;;;;;;4.33;2.90;;;;;;;18.71;54.48;94915.64;1784502;80;21026;-68
2022/04/24 09:43:13;;;;;;;3.35;3.00;;;;;;;18.76;52.79;94922.94;1795360;80;21041;-68
2022/04/24 09:45:41;;;;;;;4.67;4.20;;;;;;;18.92;52.58;94926.36;1795568;80;20967;-68
2022/04/24 09:48:17;;;;;;;3.98;2.55;;;;;;;19.00;52.43;94916.56;1786946;80;21034;-67
2022/04/24 09:50:44;;;;;;;3.72;2.90;;;;;;;19.15;52.48;94914.71;1787075;80;20984;-67
2022/04/24 09:53:14;;;;;;;3.75;2.62;;;;;;;19.29;52.76;94907.16;1786480;80;21058;-67
2022/04/24 09:55:43;;;;;;;4.08;2.77;;;;;;;19.47;50.50;94903.30;1787087;80;20990;-67
2022/04/24 09:58:13;;;;;;;3.85;3.05;;;;;;;19.61;50.71;94906.44;1787022;80;20999;-68
2022/04/24 10:00:45;;;;;;;3.95;3.05;;;;;;;19.67;50.47;94904.72;1786785;80;21003;-68
2022/04/24 10:03:14;;;;;;;3.40;3.10;;;;;;;19.87;50.81;94904.26;1785741;80;21535;-68
2022/04/24 10:05:43;;;;;;;3.67;3.02;;;;;;;20.10;50.65;94899.19;1786637;80;21003;-68
2022/04/24 10:08:10;;;;;;;2.67;2.40;;;;;;;20.24;47.46;94893.77;1786766;80;21492;-68
2022/04/24 10:10:37;;;;;;;3.67;2.90;;;;;;;20.26;45.48;94883.82;1787233;80;20999;-68
2022/04/24 10:13:07;;;;;;;4.67;3.33;;;;;;;20.34;46.08;94889.14;1786884;80;21091;-68
2022/04/24 10:15:36;;;;;;;3.90;3.30;;;;;;;20.53;49.20;94881.53;1786904;80;21465;-68
2022/04/24 10:18:17;;;;;;;3.47;3.17;;;;;;;20.77;47.60;94876.33;1786757;80;21461;-68
2022/04/24 10:21:12;;;;;;;3.37;2.90;;;;;;;20.85;45.82;94870.43;1787415;80;21007;-68
2022/04/24 10:23:39;;;;;;;4.15;2.92;;;;;;;20.84;46.29;94877.63;1786733;80;21050;-68
2022/04/24 10:26:23;;;;;;;2.98;2.60;;;;;;;21.01;44.43;94878.23;1787292;80;21480;-68
2022/04/24 10:28:53;;;;;;;3.50;3.20;;;;;;;21.14;46.36;94879.06;1787173;80;21007;-69
2022/04/24 10:31:20;;;;;;;4.17;3.10;;;;;;;21.27;45.68;94883.95;1787097;80;20982;-68
2022/04/24 10:33:54;;;;;;;3.33;2.60;;;;;;;21.15;46.93;94872.27;1787350;80;21042;-68
2022/04/24 10:36:23;;;;;;;3.20;2.35;;;;;;;21.17;46.56;94877.04;1787076;80;20987;-69
2022/04/24 10:38:59;;;;;;;2.72;2.50;;;;;;;21.44;45.54;94877.37;1787042;80;20999;-68
2022/04/24 10:41:30;;;;;;;2.90;2.60;;;;;;;21.63;44.94;94883.61;1787257;80;21445;-68
2022/04/24 10:44:15;;;;;;;3.00;2.70;;;;;;;21.59;45.08;94875.39;1787044;80;21050;-68
2022/04/24 10:46:43;;;;;;;2.80;2.50;;;;;;;21.44;45.49;94881.88;1787061;80;21094;-68
2022/04/24 10:49:13;;;;;;;2.58;2.37;;;;;;;21.61;46.99;94878.83;1780324;80;21469;-68
2022/04/24 10:51:42;;;;;;;3.50;2.62;;;;;;;21.87;47.04;94879.58;1787226;80;21524;-68
2022/04/24 10:54:13;;;;;;;2.83;2.22;;;;;;;22.03;43.18;94873.44;1787219;80;21038;-68
2022/04/24 10:56:49;;;;;;;3.40;2.75;;;;;;;21.81;42.22;94876.02;1787177;80;21063;-68
2022/04/24 10:59:22;;;;;;;3.95;2.50;;;;;;;21.80;44.54;94880.53;1787339;80;21032;-68
2022/04/24 11:01:52;;;;;;;3.08;2.60;;;;;;;21.96;45.21;94874.87;1787290;80;21559;-68
2022/04/24 11:04:20;;;;;;;4.00;2.33;;;;;;;21.81;43.72;94882.23;1787365;80;21500;-68
2022/04/24 11:06:59;;;;;;;2.85;2.33;;;;;;;21.59;44.29;94880.27;1787190;80;20987;-69
2022/04/24 11:09:35;;;;;;;3.55;2.90;;;;;;;21.29;44.41;94883.36;1786883;80;21043;-69
2022/04/24 11:12:08;;;;;;;2.98;2.67;;;;;;;21.22;45.95;94878.52;1787191;80;21007;-69
2022/04/24 11:14:35;;;;;;;4.08;2.85;;;;;;;21.05;46.44;94873.89;1787456;80;20979;-69
2022/04/24 11:17:05;;;;;;;6.40;3.17;;;;;;;20.93;46.52;94874.27;1787370;80;20972;-68
2022/04/24 11:19:35;;;;;;;2.90;2.55;;;;;;;20.81;46.80;94880.98;1787227;80;20963;-68
2022/04/24 11:22:12;;;;;;;3.80;2.27;;;;;;;20.75;47.69;94880.45;1787081;80;21019;-68
2022/04/24 11:24:40;;;;;;;2.65;2.42;;;;;;;20.89;46.67;94874.13;1787046;80;21785;-68
2022/04/24 11:27:13;;;;;;;4.47;2.83;;;;;;;20.98;44.85;94873.95;1786921;80;21371;-68
2022/04/24 11:29:43;;;;;;;3.72;2.90;;;;;;;21.02;45.40;94870.09;1787303;80;20971;-68
2022/04/24 11:32:12;;;;;;;2.67;2.42;;;;;;;20.89;46.78;94871.91;1786384;80;20984;-68
2022/04/24 11:34:39;;;;;;;2.92;2.62;;;;;;;20.78;46.35;94867.80;1787182;80;21516;-68
2022/04/24 11:37:07;;;;;;;2.42;2.22;;;;;;;20.80;46.64;94869.41;1787210;80;20980;-68